sensor_id;sensor_type;location;lat;lon;timestamp;temperature;humidity
3202;DHT22;34843;48.744;8.958;2023-07-13T00:01:46;17.80;99.90
3202;DHT22;34843;48.744;8.958;2023-07-13T00:04:16;17.70;99.90
3202;DHT22;34843;48.744;8.958;2023-07-13T00:06:43;17.70;99.90
3202;DHT22;34843;48.744;8.958;2023-07-13T00:09:13;17.60;99.90
3202;DHT22;34843;48.744;8.958;2023-07-13T00:11:40;17.50;99.90
3202;DHT22;34843;48.744;8.958;2023-07-13T00:14:07;17.50;99.90
3202;DHT22;34843;48.744;8.958;2023-07-13T00:16:38;17.40;99.90
3202;DHT22;34843;48.744;8.958;2023-07-13T00:19:04;17.40;99.90
3202;DHT22;34843;48.744;8.958;2023-07-13T00:21:30;17.30;99.90
3202;DHT22;34843;48.744;8.958;2023-07-13T00:23:56;17.20;99.90
3202;DHT22;34843;48.744;8.958;2023-07-13T00:26:22;17.10;99.90
3202;DHT22;34843;48.744;8.958;2023-07-13T00:28:47;17.10;99.90
3202;DHT22;34843;48.744;8.958;2023-07-13T00:31:13;17.00;99.90
3202;DHT22;34843;48.744;8.958;2023-07-13T00:33:42;17.20;99.90
3202;DHT22;34843;48.744;8.958;2023-07-13T00:36:08;17.10;99.90
3202;DHT22;34843;48.744;8.958;2023-07-13T00:38:33;17.20;99.90
3202;DHT22;34843;48.744;8.958;2023-07-13T00:40:59;17.20;99.90
3202;DHT22;34843;48.744;8.958;2023-07-13T00:43:27;17.20;99.90
3202;DHT22;34843;48.744;8.958;2023-07-13T00:48:25;17.30;99.90
3202;DHT22;34843;48.744;8.958;2023-07-13T00:50:55;17.30;99.90
3202;DHT22;34843;48.744;8.958;2023-07-13T00:53:22;17.40;99.90
3202;DHT22;34843;48.744;8.958;2023-07-13T00:55:51;17.40;99.90
3202;DHT22;34843;48.744;8.958;2023-07-13T00:58:17;17.60;99.90
3202;DHT22;34843;48.744;8.958;2023-07-13T01:00:43;17.60;99.90
3202;DHT22;34843;48.744;8.958;2023-07-13T01:03:08;17.70;99.90
3202;DHT22;34843;48.744;8.958;2023-07-13T01:05:35;17.70;99.90
3202;DHT22;34843;48.744;8.958;2023-07-13T01:08:03;17.70;99.90
3202;DHT22;34843;48.744;8.958;2023-07-13T01:10:30;17.70;99.90
3202;DHT22;34843;48.744;8.958;2023-07-13T01:13:05;17.70;99.90
3202;DHT22;34843;48.744;8.958;2023-07-13T01:15:43;17.70;99.90
3202;DHT22;34843;48.744;8.958;2023-07-13T01:18:15;17.60;99.90
3202;DHT22;34843;48.744;8.958;2023-07-13T01:20:50;17.50;99.90
3202;DHT22;34843;48.744;8.958;2023-07-13T01:23:16;17.40;99.90
3202;DHT22;34843;48.744;8.958;2023-07-13T01:25:41;17.40;99.90
3202;DHT22;34843;48.744;8.958;2023-07-13T01:28:08;17.30;99.90
3202;DHT22;34843;48.744;8.958;2023-07-13T01:30:38;17.30;99.90
3202;DHT22;34843;48.744;8.958;2023-07-13T01:33:08;17.10;99.90
3202;DHT22;34843;48.744;8.958;2023-07-13T01:35:35;17.00;99.90
3202;DHT22;34843;48.744;8.958;2023-07-13T01:38:01;16.90;99.90
3202;DHT22;34843;48.744;8.958;2023-07-13T01:40:27;16.70;99.90
3202;DHT22;34843;48.744;8.958;2023-07-13T01:42:52;16.60;99.90
3202;DHT22;34843;48.744;8.958;2023-07-13T01:45:18;16.50;99.90
3202;DHT22;34843;48.744;8.958;2023-07-13T01:47:44;16.50;99.90
3202;DHT22;34843;48.744;8.958;2023-07-13T01:50:09;16.40;99.90
3202;DHT22;34843;48.744;8.958;2023-07-13T01:52:35;16.30;99.90
3202;DHT22;34843;48.744;8.958;2023-07-13T01:55:00;16.30;99.90
3202;DHT22;34843;48.744;8.958;2023-07-13T01:57:27;16.20;99.90
3202;DHT22;34843;48.744;8.958;2023-07-13T01:59:53;16.20;99.90
3202;DHT22;34843;48.744;8.958;2023-07-13T02:02:18;16.20;99.90
3202;DHT22;34843;48.744;8.958;2023-07-13T02:04:44;16.10;99.90
3202;DHT22;34843;48.744;8.958;2023-07-13T02:07:10;16.00;99.90
3202;DHT22;34843;48.744;8.958;2023-07-13T02:09:36;15.90;99.90
3202;DHT22;34843;48.744;8.958;2023-07-13T02:12:01;15.90;99.90
3202;DHT22;34843;48.744;8.958;2023-07-13T02:14:27;15.80;99.90
3202;DHT22;34843;48.744;8.958;2023-07-13T02:16:52;15.60;99.90
3202;DHT22;34843;48.744;8.958;2023-07-13T02:19:18;15.50;99.90
3202;DHT22;34843;48.744;8.958;2023-07-13T02:21:43;15.50;99.90
3202;DHT22;34843;48.744;8.958;2023-07-13T02:24:09;15.40;99.90
3202;DHT22;34843;48.744;8.958;2023-07-13T02:26:35;15.30;99.90
3202;DHT22;34843;48.744;8.958;2023-07-13T02:29:01;15.20;99.90
3202;DHT22;34843;48.744;8.958;2023-07-13T02:31:26;15.20;99.90
3202;DHT22;34843;48.744;8.958;2023-07-13T02:33:52;15.10;99.90
3202;DHT22;34843;48.744;8.958;2023-07-13T02:36:17;15.10;99.90
3202;DHT22;34843;48.744;8.958;2023-07-13T02:38:44;15.10;99.90
3202;DHT22;34843;48.744;8.958;2023-07-13T02:41:09;15.00;99.90
3202;DHT22;34843;48.744;8.958;2023-07-13T02:43:37;15.60;99.90
3202;DHT22;34843;48.744;8.958;2023-07-13T02:46:02;14.90;99.90
3202;DHT22;34843;48.744;8.958;2023-07-13T02:48:35;14.80;99.90
3202;DHT22;34843;48.744;8.958;2023-07-13T02:51:00;14.80;99.90
3202;DHT22;34843;48.744;8.958;2023-07-13T02:53:26;14.70;99.90
3202;DHT22;34843;48.744;8.958;2023-07-13T02:55:52;14.70;99.90
3202;DHT22;34843;48.744;8.958;2023-07-13T02:58:17;14.60;99.90
3202;DHT22;34843;48.744;8.958;2023-07-13T03:00:44;14.50;99.90
3202;DHT22;34843;48.744;8.958;2023-07-13T03:03:11;14.50;99.90
3202;DHT22;34843;48.744;8.958;2023-07-13T03:05:40;14.40;99.90
3202;DHT22;34843;48.744;8.958;2023-07-13T03:08:05;14.40;99.90
3202;DHT22;34843;48.744;8.958;2023-07-13T03:10:32;14.40;99.90
3202;DHT22;34843;48.744;8.958;2023-07-13T03:12:57;14.40;99.90
3202;DHT22;34843;48.744;8.958;2023-07-13T03:15:23;14.30;99.90
3202;DHT22;34843;48.744;8.958;2023-07-13T03:17:49;14.30;99.90
3202;DHT22;34843;48.744;8.958;2023-07-13T03:20:14;14.30;99.90
3202;DHT22;34843;48.744;8.958;2023-07-13T03:22:40;14.20;99.90
3202;DHT22;34843;48.744;8.958;2023-07-13T03:25:06;14.20;99.90
3202;DHT22;34843;48.744;8.958;2023-07-13T03:27:31;14.30;99.90
3202;DHT22;34843;48.744;8.958;2023-07-13T03:29:57;14.40;99.90
3202;DHT22;34843;48.744;8.958;2023-07-13T03:32:22;14.40;99.90
3202;DHT22;34843;48.744;8.958;2023-07-13T03:34:48;14.40;99.90
3202;DHT22;34843;48.744;8.958;2023-07-13T03:37:13;14.50;99.90
3202;DHT22;34843;48.744;8.958;2023-07-13T03:39:39;14.50;99.90
3202;DHT22;34843;48.744;8.958;2023-07-13T03:42:05;14.50;99.90
3202;DHT22;34843;48.744;8.958;2023-07-13T03:44:30;14.60;99.90
3202;DHT22;34843;48.744;8.958;2023-07-13T03:46:56;14.60;99.90
3202;DHT22;34843;48.744;8.958;2023-07-13T03:49:22;14.60;99.90
3202;DHT22;34843;48.744;8.958;2023-07-13T03:51:47;14.80;99.90
3202;DHT22;34843;48.744;8.958;2023-07-13T03:54:13;14.90;99.90
3202;DHT22;34843;48.744;8.958;2023-07-13T03:56:38;14.90;99.90
3202;DHT22;34843;48.744;8.958;2023-07-13T03:59:04;14.90;99.90
3202;DHT22;34843;48.744;8.958;2023-07-13T04:01:30;15.00;99.90
3202;DHT22;34843;48.744;8.958;2023-07-13T04:03:55;15.10;99.90
3202;DHT22;34843;48.744;8.958;2023-07-13T04:06:25;15.10;99.90
3202;DHT22;34843;48.744;8.958;2023-07-13T04:08:54;15.20;99.90
3202;DHT22;34843;48.744;8.958;2023-07-13T04:11:22;15.20;99.90
3202;DHT22;34843;48.744;8.958;2023-07-13T04:13:48;15.30;99.90
3202;DHT22;34843;48.744;8.958;2023-07-13T04:16:15;15.30;99.90
3202;DHT22;34843;48.744;8.958;2023-07-13T04:18:40;15.20;99.90
3202;DHT22;34843;48.744;8.958;2023-07-13T04:21:07;15.20;99.90
3202;DHT22;34843;48.744;8.958;2023-07-13T04:23:33;15.20;99.90
3202;DHT22;34843;48.744;8.958;2023-07-13T04:25:59;15.20;99.90
3202;DHT22;34843;48.744;8.958;2023-07-13T04:28:25;15.10;99.90
3202;DHT22;34843;48.744;8.958;2023-07-13T04:30:50;15.00;99.90
3202;DHT22;34843;48.744;8.958;2023-07-13T04:33:16;14.90;99.90
3202;DHT22;34843;48.744;8.958;2023-07-13T04:35:43;14.90;99.90
3202;DHT22;34843;48.744;8.958;2023-07-13T04:38:09;14.80;99.90
3202;DHT22;34843;48.744;8.958;2023-07-13T04:40:36;14.80;99.90
3202;DHT22;34843;48.744;8.958;2023-07-13T04:43:02;14.80;99.90
3202;DHT22;34843;48.744;8.958;2023-07-13T04:45:27;14.80;99.90
3202;DHT22;34843;48.744;8.958;2023-07-13T04:47:53;14.70;99.90
3202;DHT22;34843;48.744;8.958;2023-07-13T04:50:19;14.80;99.90
3202;DHT22;34843;48.744;8.958;2023-07-13T04:52:49;14.80;99.90
3202;DHT22;34843;48.744;8.958;2023-07-13T04:55:15;14.80;99.90
3202;DHT22;34843;48.744;8.958;2023-07-13T04:57:40;14.80;99.90
3202;DHT22;34843;48.744;8.958;2023-07-13T05:00:06;15.00;99.90
3202;DHT22;34843;48.744;8.958;2023-07-13T05:02:33;15.50;99.90
3202;DHT22;34843;48.744;8.958;2023-07-13T05:04:59;16.90;99.90
3202;DHT22;34843;48.744;8.958;2023-07-13T05:07:26;18.60;99.90
3202;DHT22;34843;48.744;8.958;2023-07-13T05:09:51;19.20;99.90
3202;DHT22;34843;48.744;8.958;2023-07-13T05:12:17;19.20;99.90
3202;DHT22;34843;48.744;8.958;2023-07-13T05:14:43;19.10;99.90
3202;DHT22;34843;48.744;8.958;2023-07-13T05:17:09;19.40;99.90
3202;DHT22;34843;48.744;8.958;2023-07-13T05:19:35;19.80;99.90
3202;DHT22;34843;48.744;8.958;2023-07-13T05:22:00;19.90;99.90
3202;DHT22;34843;48.744;8.958;2023-07-13T05:24:26;20.00;99.90
3202;DHT22;34843;48.744;8.958;2023-07-13T05:26:52;20.00;99.90
3202;DHT22;34843;48.744;8.958;2023-07-13T05:29:18;19.80;99.90
3202;DHT22;34843;48.744;8.958;2023-07-13T05:31:44;19.50;99.90
3202;DHT22;34843;48.744;8.958;2023-07-13T05:34:09;19.30;99.90
3202;DHT22;34843;48.744;8.958;2023-07-13T05:36:35;19.00;99.90
3202;DHT22;34843;48.744;8.958;2023-07-13T05:39:00;18.80;99.90
3202;DHT22;34843;48.744;8.958;2023-07-13T05:41:27;18.70;99.90
3202;DHT22;34843;48.744;8.958;2023-07-13T05:43:53;18.50;99.90
3202;DHT22;34843;48.744;8.958;2023-07-13T05:46:18;18.40;99.90
3202;DHT22;34843;48.744;8.958;2023-07-13T05:48:44;18.40;99.90
3202;DHT22;34843;48.744;8.958;2023-07-13T05:51:09;18.70;99.90
3202;DHT22;34843;48.744;8.958;2023-07-13T05:53:35;19.20;99.90
3202;DHT22;34843;48.744;8.958;2023-07-13T05:56:01;19.90;99.90
3202;DHT22;34843;48.744;8.958;2023-07-13T05:58:26;20.50;99.90
3202;DHT22;34843;48.744;8.958;2023-07-13T06:01:06;21.80;99.90
3202;DHT22;34843;48.744;8.958;2023-07-13T06:03:32;24.10;99.90
3202;DHT22;34843;48.744;8.958;2023-07-13T06:05:58;25.50;99.90
3202;DHT22;34843;48.744;8.958;2023-07-13T06:08:25;26.80;99.90
3202;DHT22;34843;48.744;8.958;2023-07-13T06:10:51;27.10;99.90
3202;DHT22;34843;48.744;8.958;2023-07-13T06:13:17;27.70;99.90
3202;DHT22;34843;48.744;8.958;2023-07-13T06:15:48;28.70;99.90
3202;DHT22;34843;48.744;8.958;2023-07-13T06:18:14;30.10;99.90
3202;DHT22;34843;48.744;8.958;2023-07-13T06:20:40;29.60;99.90
3202;DHT22;34843;48.744;8.958;2023-07-13T06:23:05;29.60;99.90
3202;DHT22;34843;48.744;8.958;2023-07-13T06:25:30;30.50;99.90
3202;DHT22;34843;48.744;8.958;2023-07-13T06:27:56;32.00;99.90
3202;DHT22;34843;48.744;8.958;2023-07-13T06:30:21;33.50;99.90
3202;DHT22;34843;48.744;8.958;2023-07-13T06:32:47;34.70;98.00
3202;DHT22;34843;48.744;8.958;2023-07-13T06:35:12;35.20;93.40
3202;DHT22;34843;48.744;8.958;2023-07-13T06:37:38;35.90;90.90
3202;DHT22;34843;48.744;8.958;2023-07-13T06:40:05;36.60;88.30
3202;DHT22;34843;48.744;8.958;2023-07-13T06:42:31;35.90;83.20
3202;DHT22;34843;48.744;8.958;2023-07-13T06:44:56;35.10;84.20
3202;DHT22;34843;48.744;8.958;2023-07-13T06:47:22;35.30;82.10
3202;DHT22;34843;48.744;8.958;2023-07-13T06:49:47;35.90;81.40
3202;DHT22;34843;48.744;8.958;2023-07-13T06:52:13;36.30;78.90
3202;DHT22;34843;48.744;8.958;2023-07-13T06:54:39;36.80;78.90
3202;DHT22;34843;48.744;8.958;2023-07-13T06:57:05;36.70;78.50
3202;DHT22;34843;48.744;8.958;2023-07-13T06:59:30;36.90;74.50
3202;DHT22;34843;48.744;8.958;2023-07-13T07:01:56;36.70;72.50
3202;DHT22;34843;48.744;8.958;2023-07-13T07:04:21;36.40;71.10
3202;DHT22;34843;48.744;8.958;2023-07-13T07:06:47;36.50;73.60
3202;DHT22;34843;48.744;8.958;2023-07-13T07:09:12;36.30;71.80
3202;DHT22;34843;48.744;8.958;2023-07-13T07:11:39;36.70;70.40
3202;DHT22;34843;48.744;8.958;2023-07-13T07:14:04;37.50;68.40
3202;DHT22;34843;48.744;8.958;2023-07-13T07:16:30;37.70;67.40
3202;DHT22;34843;48.744;8.958;2023-07-13T07:18:55;37.60;67.70
3202;DHT22;34843;48.744;8.958;2023-07-13T07:21:21;37.50;66.00
3202;DHT22;34843;48.744;8.958;2023-07-13T07:23:48;37.60;65.10
3202;DHT22;34843;48.744;8.958;2023-07-13T07:26:14;38.30;65.60
3202;DHT22;34843;48.744;8.958;2023-07-13T07:28:39;38.40;62.90
3202;DHT22;34843;48.744;8.958;2023-07-13T07:31:05;37.90;64.10
3202;DHT22;34843;48.744;8.958;2023-07-13T07:33:33;37.70;62.90
3202;DHT22;34843;48.744;8.958;2023-07-13T07:36:00;38.50;63.00
3202;DHT22;34843;48.744;8.958;2023-07-13T07:38:25;39.20;62.10
3202;DHT22;34843;48.744;8.958;2023-07-13T07:40:52;39.70;62.50
3202;DHT22;34843;48.744;8.958;2023-07-13T07:43:17;39.40;57.60
3202;DHT22;34843;48.744;8.958;2023-07-13T07:45:44;39.20;57.70
3202;DHT22;34843;48.744;8.958;2023-07-13T07:48:10;39.00;55.70
3202;DHT22;34843;48.744;8.958;2023-07-13T07:50:36;38.90;56.70
3202;DHT22;34843;48.744;8.958;2023-07-13T07:53:03;38.90;57.30
3202;DHT22;34843;48.744;8.958;2023-07-13T07:55:33;39.00;57.10
3202;DHT22;34843;48.744;8.958;2023-07-13T07:57:59;39.60;57.60
3202;DHT22;34843;48.744;8.958;2023-07-13T08:00:25;39.60;55.90
3202;DHT22;34843;48.744;8.958;2023-07-13T08:02:50;39.80;57.00
3202;DHT22;34843;48.744;8.958;2023-07-13T08:05:16;39.30;53.00
3202;DHT22;34843;48.744;8.958;2023-07-13T08:07:42;39.60;54.40
3202;DHT22;34843;48.744;8.958;2023-07-13T08:10:08;39.50;55.00
3202;DHT22;34843;48.744;8.958;2023-07-13T08:12:35;39.00;54.70
3202;DHT22;34843;48.744;8.958;2023-07-13T08:15:01;38.80;54.90
3202;DHT22;34843;48.744;8.958;2023-07-13T08:17:26;38.10;55.70
3202;DHT22;34843;48.744;8.958;2023-07-13T08:19:52;38.80;55.40
3202;DHT22;34843;48.744;8.958;2023-07-13T08:22:18;39.40;56.10
3202;DHT22;34843;48.744;8.958;2023-07-13T08:24:43;40.10;54.50
3202;DHT22;34843;48.744;8.958;2023-07-13T08:27:11;39.30;53.50
3202;DHT22;34843;48.744;8.958;2023-07-13T08:29:37;38.40;55.00
3202;DHT22;34843;48.744;8.958;2023-07-13T08:32:03;38.40;55.40
3202;DHT22;34843;48.744;8.958;2023-07-13T08:34:29;37.90;55.80
3202;DHT22;34843;48.744;8.958;2023-07-13T08:36:55;37.60;55.20
3202;DHT22;34843;48.744;8.958;2023-07-13T08:39:20;35.80;54.80
3202;DHT22;34843;48.744;8.958;2023-07-13T08:41:49;33.60;57.80
3202;DHT22;34843;48.744;8.958;2023-07-13T08:44:26;31.60;59.80
3202;DHT22;34843;48.744;8.958;2023-07-13T08:46:54;30.00;64.90
3202;DHT22;34843;48.744;8.958;2023-07-13T08:49:22;28.50;67.30
3202;DHT22;34843;48.744;8.958;2023-07-13T08:52:01;27.70;68.10
3202;DHT22;34843;48.744;8.958;2023-07-13T08:54:32;27.50;70.40
3202;DHT22;34843;48.744;8.958;2023-07-13T08:57:02;27.00;71.50
3202;DHT22;34843;48.744;8.958;2023-07-13T08:59:33;26.30;71.30
3202;DHT22;34843;48.744;8.958;2023-07-13T09:02:14;25.90;76.70
3202;DHT22;34843;48.744;8.958;2023-07-13T09:10:17;25.50;76.10
3202;DHT22;34843;48.744;8.958;2023-07-13T09:15:31;25.30;76.10
3202;DHT22;34843;48.744;8.958;2023-07-13T09:18:32;25.40;76.80
3202;DHT22;34843;48.744;8.958;2023-07-13T09:23:36;25.20;77.60
3202;DHT22;34843;48.744;8.958;2023-07-13T09:26:12;25.00;81.60
3202;DHT22;34843;48.744;8.958;2023-07-13T09:28:42;25.30;79.80
3202;DHT22;34843;48.744;8.958;2023-07-13T09:31:33;25.60;79.60
3202;DHT22;34843;48.744;8.958;2023-07-13T09:33:59;25.80;76.90
3202;DHT22;34843;48.744;8.958;2023-07-13T09:36:29;25.50;76.30
3202;DHT22;34843;48.744;8.958;2023-07-13T09:39:09;27.30;81.00
3202;DHT22;34843;48.744;8.958;2023-07-13T09:41:49;25.60;77.50
3202;DHT22;34843;48.744;8.958;2023-07-13T09:44:18;25.70;76.70
3202;DHT22;34843;48.744;8.958;2023-07-13T09:46:54;25.60;78.10
3202;DHT22;34843;48.744;8.958;2023-07-13T09:49:27;25.30;77.10
3202;DHT22;34843;48.744;8.958;2023-07-13T09:52:03;25.50;77.40
3202;DHT22;34843;48.744;8.958;2023-07-13T09:54:32;25.70;78.90
3202;DHT22;34843;48.744;8.958;2023-07-13T09:56:59;25.80;78.90
3202;DHT22;34843;48.744;8.958;2023-07-13T09:59:30;25.70;78.80
3202;DHT22;34843;48.744;8.958;2023-07-13T10:01:56;25.50;78.30
3202;DHT22;34843;48.744;8.958;2023-07-13T10:04:32;25.50;78.70
3202;DHT22;34843;48.744;8.958;2023-07-13T10:07:11;25.60;79.30
3202;DHT22;34843;48.744;8.958;2023-07-13T10:09:38;25.60;77.90
3202;DHT22;34843;48.744;8.958;2023-07-13T10:12:13;25.40;77.60
3202;DHT22;34843;48.744;8.958;2023-07-13T10:14:40;25.50;79.80
3202;DHT22;34843;48.744;8.958;2023-07-13T10:17:11;25.50;77.60
3202;DHT22;34843;48.744;8.958;2023-07-13T10:19:38;25.30;78.20
3202;DHT22;34843;48.744;8.958;2023-07-13T10:22:33;25.10;79.20
3202;DHT22;34843;48.744;8.958;2023-07-13T10:25:03;25.60;80.50
3202;DHT22;34843;48.744;8.958;2023-07-13T10:27:37;26.20;79.90
3202;DHT22;34843;48.744;8.958;2023-07-13T10:30:27;26.80;79.90
3202;DHT22;34843;48.744;8.958;2023-07-13T10:32:58;27.10;79.10
3202;DHT22;34843;48.744;8.958;2023-07-13T10:35:26;26.90;76.80
3202;DHT22;34843;48.744;8.958;2023-07-13T10:38:00;26.90;76.70
3202;DHT22;34843;48.744;8.958;2023-07-13T10:40:37;26.90;75.60
3202;DHT22;34843;48.744;8.958;2023-07-13T10:43:09;26.50;75.10
3202;DHT22;34843;48.744;8.958;2023-07-13T10:45:37;26.30;78.70
3202;DHT22;34843;48.744;8.958;2023-07-13T10:48:04;26.30;80.20
3202;DHT22;34843;48.744;8.958;2023-07-13T10:50:31;26.30;77.70
3202;DHT22;34843;48.744;8.958;2023-07-13T10:53:17;26.20;79.60
3202;DHT22;34843;48.744;8.958;2023-07-13T11:03:36;26.80;78.50
3202;DHT22;34843;48.744;8.958;2023-07-13T11:08:52;27.30;76.80
3202;DHT22;34843;48.744;8.958;2023-07-13T11:18:51;27.10;81.70
3202;DHT22;34843;48.744;8.958;2023-07-13T11:21:21;26.70;78.40
3202;DHT22;34843;48.744;8.958;2023-07-13T11:23:53;26.70;80.60
3202;DHT22;34843;48.744;8.958;2023-07-13T11:26:42;26.50;80.90
3202;DHT22;34843;48.744;8.958;2023-07-13T11:31:59;26.50;78.80
3202;DHT22;34843;48.744;8.958;2023-07-13T11:34:38;26.40;80.40
3202;DHT22;34843;48.744;8.958;2023-07-13T11:37:10;26.50;80.90
3202;DHT22;34843;48.744;8.958;2023-07-13T11:39:41;26.40;80.90
3202;DHT22;34843;48.744;8.958;2023-07-13T11:42:15;26.00;78.40
3202;DHT22;34843;48.744;8.958;2023-07-13T11:44:46;25.50;79.00
3202;DHT22;34843;48.744;8.958;2023-07-13T11:47:22;25.50;81.60
3202;DHT22;34843;48.744;8.958;2023-07-13T11:49:53;25.50;80.30
3202;DHT22;34843;48.744;8.958;2023-07-13T11:52:32;25.40;81.40
3202;DHT22;34843;48.744;8.958;2023-07-13T11:55:00;25.10;79.50
3202;DHT22;34843;48.744;8.958;2023-07-13T11:57:28;24.80;83.50
3202;DHT22;34843;48.744;8.958;2023-07-13T11:59:55;24.70;83.40
3202;DHT22;34843;48.744;8.958;2023-07-13T12:02:31;25.00;85.10
3202;DHT22;34843;48.744;8.958;2023-07-13T12:04:59;25.20;84.30
3202;DHT22;34843;48.744;8.958;2023-07-13T12:07:29;25.70;85.10
3202;DHT22;34843;48.744;8.958;2023-07-13T12:10:01;26.20;80.30
3202;DHT22;34843;48.744;8.958;2023-07-13T12:12:28;26.80;81.80
3202;DHT22;34843;48.744;8.958;2023-07-13T12:14:54;26.90;79.80
3202;DHT22;34843;48.744;8.958;2023-07-13T12:17:24;27.00;79.80
3202;DHT22;34843;48.744;8.958;2023-07-13T12:19:52;26.60;80.40
3202;DHT22;34843;48.744;8.958;2023-07-13T12:22:19;26.70;78.30
3202;DHT22;34843;48.744;8.958;2023-07-13T12:24:46;26.60;80.80
3202;DHT22;34843;48.744;8.958;2023-07-13T12:27:30;26.40;80.00
3202;DHT22;34843;48.744;8.958;2023-07-13T12:30:02;26.40;81.60
3202;DHT22;34843;48.744;8.958;2023-07-13T12:32:28;26.20;78.30
3202;DHT22;34843;48.744;8.958;2023-07-13T12:35:16;26.20;80.70
3202;DHT22;34843;48.744;8.958;2023-07-13T12:37:46;26.20;78.70
3202;DHT22;34843;48.744;8.958;2023-07-13T12:40:15;26.40;78.20
3202;DHT22;34843;48.744;8.958;2023-07-13T12:42:41;26.50;77.60
3202;DHT22;34843;48.744;8.958;2023-07-13T12:45:23;26.60;77.80
3202;DHT22;34843;48.744;8.958;2023-07-13T12:47:53;26.70;77.80
3202;DHT22;34843;48.744;8.958;2023-07-13T12:50:22;27.00;78.90
3202;DHT22;34843;48.744;8.958;2023-07-13T12:52:56;27.20;77.00
3202;DHT22;34843;48.744;8.958;2023-07-13T12:55:24;27.20;77.10
3202;DHT22;34843;48.744;8.958;2023-07-13T12:57:51;27.30;78.00
3202;DHT22;34843;48.744;8.958;2023-07-13T13:00:37;27.40;75.20
3202;DHT22;34843;48.744;8.958;2023-07-13T13:05:44;27.00;75.30
3202;DHT22;34843;48.744;8.958;2023-07-13T13:08:11;26.80;75.90
3202;DHT22;34843;48.744;8.958;2023-07-13T13:10:37;26.80;73.40
3202;DHT22;34843;48.744;8.958;2023-07-13T13:13:03;26.50;75.30
3202;DHT22;34843;48.744;8.958;2023-07-13T13:15:28;26.20;77.50
3202;DHT22;34843;48.744;8.958;2023-07-13T13:17:55;26.20;78.20
3202;DHT22;34843;48.744;8.958;2023-07-13T13:20:22;26.00;79.00
3202;DHT22;34843;48.744;8.958;2023-07-13T13:22:48;25.10;76.10
3202;DHT22;34843;48.744;8.958;2023-07-13T13:25:15;25.70;77.30
3202;DHT22;34843;48.744;8.958;2023-07-13T13:27:44;25.80;79.50
3202;DHT22;34843;48.744;8.958;2023-07-13T13:30:15;26.10;78.90
3202;DHT22;34843;48.744;8.958;2023-07-13T13:32:43;26.30;76.80
3202;DHT22;34843;48.744;8.958;2023-07-13T13:35:19;26.20;78.40
3202;DHT22;34843;48.744;8.958;2023-07-13T13:37:46;26.30;79.80
3202;DHT22;34843;48.744;8.958;2023-07-13T13:40:21;26.20;76.70
3202;DHT22;34843;48.744;8.958;2023-07-13T13:42:48;26.10;76.20
3202;DHT22;34843;48.744;8.958;2023-07-13T13:45:14;26.00;76.90
3202;DHT22;34843;48.744;8.958;2023-07-13T13:47:42;26.20;78.90
3202;DHT22;34843;48.744;8.958;2023-07-13T13:50:20;26.40;78.30
3202;DHT22;34843;48.744;8.958;2023-07-13T13:52:48;26.50;76.00
3202;DHT22;34843;48.744;8.958;2023-07-13T13:55:15;26.40;75.30
3202;DHT22;34843;48.744;8.958;2023-07-13T13:57:41;26.30;77.00
3202;DHT22;34843;48.744;8.958;2023-07-13T14:00:09;26.10;77.70
3202;DHT22;34843;48.744;8.958;2023-07-13T14:02:46;25.80;77.80
3202;DHT22;34843;48.744;8.958;2023-07-13T14:05:14;25.60;81.00
3202;DHT22;34843;48.744;8.958;2023-07-13T14:07:41;25.60;77.70
3202;DHT22;34843;48.744;8.958;2023-07-13T14:10:12;25.80;78.10
3202;DHT22;34843;48.744;8.958;2023-07-13T14:12:39;26.10;80.50
3202;DHT22;34843;48.744;8.958;2023-07-13T14:15:05;26.30;78.40
3202;DHT22;34843;48.744;8.958;2023-07-13T14:17:31;26.00;77.50
3202;DHT22;34843;48.744;8.958;2023-07-13T14:19:56;25.80;76.40
3202;DHT22;34843;48.744;8.958;2023-07-13T14:22:26;25.90;81.30
3202;DHT22;34843;48.744;8.958;2023-07-13T14:24:53;26.00;78.90
3202;DHT22;34843;48.744;8.958;2023-07-13T14:27:19;26.20;79.10
3202;DHT22;34843;48.744;8.958;2023-07-13T14:29:45;26.10;82.20
3202;DHT22;34843;48.744;8.958;2023-07-13T14:32:12;26.20;79.70
3202;DHT22;34843;48.744;8.958;2023-07-13T14:34:38;26.00;81.60
3202;DHT22;34843;48.744;8.958;2023-07-13T14:37:04;25.80;79.70
3202;DHT22;34843;48.744;8.958;2023-07-13T14:39:31;25.60;80.70
3202;DHT22;34843;48.744;8.958;2023-07-13T14:41:58;25.50;81.50
3202;DHT22;34843;48.744;8.958;2023-07-13T14:44:28;25.00;79.60
3202;DHT22;34843;48.744;8.958;2023-07-13T14:46:55;25.10;85.10
3202;DHT22;34843;48.744;8.958;2023-07-13T14:49:30;25.10;83.40
3202;DHT22;34843;48.744;8.958;2023-07-13T14:51:57;25.30;83.80
3202;DHT22;34843;48.744;8.958;2023-07-13T14:54:23;25.50;83.80
3202;DHT22;34843;48.744;8.958;2023-07-13T14:56:49;25.60;79.70
3202;DHT22;34843;48.744;8.958;2023-07-13T14:59:16;25.60;81.30
3202;DHT22;34843;48.744;8.958;2023-07-13T15:01:44;25.40;81.00
3202;DHT22;34843;48.744;8.958;2023-07-13T15:04:10;25.40;82.80
3202;DHT22;34843;48.744;8.958;2023-07-13T15:06:57;25.30;82.30
3202;DHT22;34843;48.744;8.958;2023-07-13T15:09:23;25.30;83.80
3202;DHT22;34843;48.744;8.958;2023-07-13T15:11:52;25.10;81.50
3202;DHT22;34843;48.744;8.958;2023-07-13T15:14:17;25.00;84.70
3202;DHT22;34843;48.744;8.958;2023-07-13T15:16:43;24.90;82.80
3202;DHT22;34843;48.744;8.958;2023-07-13T15:19:10;24.90;82.80
3202;DHT22;34843;48.744;8.958;2023-07-13T15:21:36;25.10;82.70
3202;DHT22;34843;48.744;8.958;2023-07-13T15:24:02;25.00;82.50
3202;DHT22;34843;48.744;8.958;2023-07-13T15:26:28;24.80;80.70
3202;DHT22;34843;48.744;8.958;2023-07-13T15:28:53;24.70;82.60
3202;DHT22;34843;48.744;8.958;2023-07-13T15:31:24;24.70;83.20
3202;DHT22;34843;48.744;8.958;2023-07-13T15:33:53;25.00;81.90
3202;DHT22;34843;48.744;8.958;2023-07-13T15:36:21;24.90;81.70
3202;DHT22;34843;48.744;8.958;2023-07-13T15:38:47;25.00;80.40
3202;DHT22;34843;48.744;8.958;2023-07-13T15:41:32;25.10;86.40
3202;DHT22;34843;48.744;8.958;2023-07-13T15:44:00;25.10;81.20
3202;DHT22;34843;48.744;8.958;2023-07-13T15:46:30;25.00;81.70
3202;DHT22;34843;48.744;8.958;2023-07-13T15:48:57;25.00;82.70
3202;DHT22;34843;48.744;8.958;2023-07-13T15:51:29;24.90;81.10
3202;DHT22;34843;48.744;8.958;2023-07-13T15:53:58;24.80;81.80
3202;DHT22;34843;48.744;8.958;2023-07-13T15:56:26;24.80;83.90
3202;DHT22;34843;48.744;8.958;2023-07-13T15:58:53;24.80;82.40
3202;DHT22;34843;48.744;8.958;2023-07-13T16:01:19;24.80;82.30
3202;DHT22;34843;48.744;8.958;2023-07-13T16:03:46;24.80;82.00
3202;DHT22;34843;48.744;8.958;2023-07-13T16:06:20;24.90;82.10
3202;DHT22;34843;48.744;8.958;2023-07-13T16:08:48;24.80;82.00
3202;DHT22;34843;48.744;8.958;2023-07-13T16:11:36;24.70;82.10
3202;DHT22;34843;48.744;8.958;2023-07-13T16:14:02;24.40;84.00
3202;DHT22;34843;48.744;8.958;2023-07-13T16:16:31;24.20;84.60
3202;DHT22;34843;48.744;8.958;2023-07-13T16:18:59;24.10;84.20
3202;DHT22;34843;48.744;8.958;2023-07-13T16:21:30;24.20;84.00
3202;DHT22;34843;48.744;8.958;2023-07-13T16:23:58;24.20;83.20
3202;DHT22;34843;48.744;8.958;2023-07-13T16:26:33;24.30;83.30
3202;DHT22;34843;48.744;8.958;2023-07-13T16:29:20;24.30;82.70